SBPP/PMG METAR and TAF weather

Enter ICAO airport designator
Station Type Date Time Source
SBPP METAR 2020/04/04 12:00 UTC NOAA

SBPP 041200Z 05004KT CAVOK 18/12 Q1016


Station Type Date Time Source
SBPP Decoded METAR 2020/04/04 12:00 UTC NOAA

Ponta Pora Intl , Brazil (SBPP) 22-33S 055-42W
Apr 04, 2020 - 08:00 AM EDT / 2020.04.04 1200 UTC
Wind: from the NE (050 degrees) at 5 MPH (4 KT):0
Visibility: greater than 7 mile(s):0
Temperature: 64 F (18 C)
Dew Point: 53 F (12 C)
Relative Humidity: 67%
Pressure (altimeter): 30.00 in. Hg (1016 hPa)
ob: SBPP 041200Z 05004KT CAVOK 18/12 Q1016
cycle: 12

Station Type Date Time Source
SBPP TAF 2020/04/04 12:03 UTC NOAA

TAF SBPP 040900Z 0412/0512 04005KT CAVOK TX29/0418Z TN19/0509Z
BECMG 0413/0415 33007KT 9999 SCT030 FEW035TCU
BECMG 0416/0418 27008KT SCT030 FEW040TCU
BECMG 0420/0422 17005KT CAVOK
BECMG 0423/0501 09005KT
BECMG 0510/0512 02005KT 9999 FEW020
RMK PDG

Example: see airport list